Time;durP1;ratioP1;P1;durP2;ratioP2;P2;SDS_P1;SDS_P2;PMS_P1;PMS_P2;Temp;Humidity;BMP_temperature;BMP_pressure;BME280_temperature;BME280_humidity;BME280_pressure;Samples;Min_cycle;Max_cycle;Signal;HPM_P1;HPM_P2
2021/12/08 00:01:39;;;;;;;;;;;;;;;16.56;45.52;99195.84;4986491;28;19914;-47
2021/12/08 00:04:04;;;;;;;;;;;;;;;16.55;45.48;99189.66;4977609;28;19934;-50
2021/12/08 00:06:29;;;;;;;;;;;;;;;16.54;45.50;99176.47;4967718;28;19920;-49
2021/12/08 00:09:25;;;;;;;;;;;;;;;16.53;45.73;99178.31;4966253;29;19914;-50
2021/12/08 00:14:34;;;;;;;;;;;;;;;16.52;45.48;99182.00;4967207;29;19973;-50
2021/12/08 00:16:59;;;;;;;;;;;;;;;16.52;45.57;99179.31;4967013;28;19949;-48
2021/12/08 00:19:27;;;;;;;;;;;;;;;16.52;45.56;99171.25;4967293;29;20502;-49
2021/12/08 00:21:52;;;;;;;;;;;;;;;16.52;45.47;99178.50;4977285;28;19924;-49
2021/12/08 00:24:17;;;;;;;;;;;;;;;16.51;45.53;99169.63;4984875;28;20016;-54
2021/12/08 00:26:42;;;;;;;;;;;;;;;16.50;45.62;99187.56;4986386;28;19921;-51
2021/12/08 00:29:08;;;;;;;;;;;;;;;16.49;45.56;99188.59;4970460;28;20009;-51
2021/12/08 00:31:34;;;;;;;;;;;;;;;16.49;45.52;99187.78;4966462;28;19918;-52
2021/12/08 00:33:59;;;;;;;;;;;;;;;16.49;45.63;99182.41;4967379;28;19938;-52
2021/12/08 00:36:30;;;;;;;;;;;;;;;16.47;45.46;99171.84;4966998;29;19934;-50
2021/12/08 00:38:56;;;;;;;;;;;;;;;16.47;45.57;99171.03;4967348;28;19990;-50
2021/12/08 00:41:21;;;;;;;;;;;;;;;16.47;45.60;99163.81;4966869;29;19914;-48
2021/12/08 00:43:46;;;;;;;;;;;;;;;16.46;45.52;99155.97;4966712;29;19962;-51
2021/12/08 00:46:11;;;;;;;;;;;;;;;16.46;45.46;99161.31;4966470;29;19917;-51
2021/12/08 00:48:39;;;;;;;;;;;;;;;16.45;45.71;99155.13;4966829;29;20013;-51
2021/12/08 00:51:04;;;;;;;;;;;;;;;16.44;45.46;99156.16;4966948;28;19922;-48
2021/12/08 00:53:29;;;;;;;;;;;;;;;16.44;45.55;99155.34;4966857;29;19918;-48
2021/12/08 00:55:54;;;;;;;;;;;;;;;16.44;45.51;99166.06;4966545;29;20320;-53
2021/12/08 00:58:19;;;;;;;;;;;;;;;16.43;45.56;99173.25;4966734;29;20402;-53
2021/12/08 01:00:47;;;;;;;;;;;;;;;16.43;45.54;99167.91;4958615;29;20382;-51
2021/12/08 01:03:13;;;;;;;;;;;;;;;16.43;45.53;99173.25;4950022;29;20963;-48
2021/12/08 01:05:44;;;;;;;;;;;;;;;16.43;45.53;99170.59;4965579;29;19974;-48
2021/12/08 01:08:09;;;;;;;;;;;;;;;16.41;45.56;99156.56;4966561;28;20045;-49
2021/12/08 01:10:35;;;;;;;;;;;;;;;16.42;45.46;99152.00;4967141;28;19927;-52
2021/12/08 01:13:00;;;;;;;;;;;;;;;16.42;45.58;99154.69;4966670;28;20370;-48
2021/12/08 01:15:26;;;;;;;;;;;;;;;16.42;45.45;99149.34;4965660;28;19921;-49
2021/12/08 01:17:51;;;;;;;;;;;;;;;16.41;45.50;99148.50;4966559;29;19918;-49
2021/12/08 01:20:16;;;;;;;;;;;;;;;16.41;45.54;99147.69;4966159;28;20069;-50
2021/12/08 01:22:42;;;;;;;;;;;;;;;16.40;45.54;99162.94;4966723;28;19922;-47
2021/12/08 01:25:07;;;;;;;;;;;;;;;16.40;45.47;99164.81;4966002;29;19922;-53
2021/12/08 01:27:33;;;;;;;;;;;;;;;16.40;45.54;99164.81;4966333;29;19915;-49
2021/12/08 01:29:58;;;;;;;;;;;;;;;16.39;45.45;99163.94;4965269;28;19930;-49
2021/12/08 01:32:23;;;;;;;;;;;;;;;16.38;45.50;99162.28;4965979;29;19922;-50
2021/12/08 01:34:49;;;;;;;;;;;;;;;16.40;45.46;99167.50;4965999;28;19914;-51
2021/12/08 01:37:14;;;;;;;;;;;;;;;16.39;45.40;99163.94;4966022;28;19998;-50
2021/12/08 01:39:39;;;;;;;;;;;;;;;16.39;45.42;99160.44;4980554;28;19973;-50
2021/12/08 01:42:06;;;;;;;;;;;;;;;16.39;45.49;99163.13;4985431;28;19914;-51
2021/12/08 01:47:16;;;;;;;;;;;;;;;16.38;45.31;99173.03;4985456;28;19925;-50
2021/12/08 01:49:41;;;;;;;;;;;;;;;16.37;45.42;99173.22;4985089;28;19914;-48
2021/12/08 01:52:06;;;;;;;;;;;;;;;16.38;45.36;99156.09;4984755;28;19986;-53
2021/12/08 01:54:31;;;;;;;;;;;;;;;16.37;45.50;99162.50;4985130;28;19918;-53
2021/12/08 01:56:57;;;;;;;;;;;;;;;16.37;45.38;99166.00;4985032;28;19914;-51
2021/12/08 01:59:22;;;;;;;;;;;;;;;16.36;45.50;99172.41;4984691;28;19977;-52
2021/12/08 02:01:47;;;;;;;;;;;;;;;16.36;45.33;99164.34;4984525;28;19915;-50
2021/12/08 02:04:12;;;;;;;;;;;;;;;16.36;45.34;99166.22;4974472;28;20372;-50
2021/12/08 02:06:38;;;;;;;;;;;;;;;16.36;45.38;99168.91;4964513;29;19982;-49
2021/12/08 02:09:05;;;;;;;;;;;;;;;16.34;45.40;99169.06;4965930;28;19958;-50
2021/12/08 02:11:30;;;;;;;;;;;;;;;16.35;45.42;99164.53;4964220;29;19930;-51
2021/12/08 02:14:00;;;;;;;;;;;;;;;16.34;45.44;99170.94;4965376;29;19915;-48
2021/12/08 02:16:25;;;;;;;;;;;;;;;16.33;45.38;99170.09;4965313;28;19907;-50
2021/12/08 02:18:52;;;;;;;;;;;;;;;16.33;45.42;99166.59;4965715;28;19914;-51
2021/12/08 02:21:20;;;;;;;;;;;;;;;16.33;45.31;99163.91;4965423;28;20356;-47
2021/12/08 02:23:46;;;;;;;;;;;;;;;16.33;45.37;99169.28;4967121;28;19954;-47
2021/12/08 02:26:11;;;;;;;;;;;;;;;16.33;45.46;99166.59;4965170;28;19927;-47
2021/12/08 02:28:36;;;;;;;;;;;;;;;16.33;45.37;99164.75;4974645;28;19914;-50
2021/12/08 02:31:05;;;;;;;;;;;;;;;16.33;45.32;99175.47;4963272;29;19925;-53
2021/12/08 02:47:29;;;;;;;;;;;;;;;16.33;45.45;99177.31;4969137;29;19922;-52
2021/12/08 02:49:55;;;;;;;;;;;;;;;16.32;45.40;99178.34;4969058;29;19918;-51
2021/12/08 02:52:20;;;;;;;;;;;;;;;16.32;45.24;99184.53;4969286;28;19954;-51
2021/12/08 02:54:47;;;;;;;;;;;;;;;16.31;45.43;99185.56;4968770;29;19914;-52
2021/12/08 02:57:12;;;;;;;;;;;;;;;16.31;45.45;99185.56;4969050;28;19937;-49
2021/12/08 02:59:38;;;;;;;;;;;;;;;16.29;45.43;99182.25;4967092;28;20903;-44
2021/12/08 03:02:03;;;;;;;;;;;;;;;16.30;45.36;99173.16;4968570;28;19991;-47
2021/12/08 03:04:28;;;;;;;;;;;;;;;16.31;45.42;99171.31;4968878;29;20419;-49
2021/12/08 03:06:53;;;;;;;;;;;;;;;16.30;45.42;99183.88;4968789;28;19915;-46
2021/12/08 03:09:18;;;;;;;;;;;;;;;16.30;45.20;99185.75;4968649;28;19969;-53
2021/12/08 03:11:44;;;;;;;;;;;;;;;16.30;45.39;99178.53;4968304;28;19922;-50
2021/12/08 03:14:10;;;;;;;;;;;;;;;16.30;45.28;99186.56;4968503;29;20667;-52
2021/12/08 03:16:36;;;;;;;;;;;;;;;16.31;45.34;99193.63;4967886;28;19919;-53
2021/12/08 03:19:01;;;;;;;;;;;;;;;16.31;45.22;99184.72;4975478;28;19961;-49
2021/12/08 03:21:30;;;;;;;;;;;;;;;16.31;45.18;99193.63;4987926;28;19960;-50
2021/12/08 03:24:10;;;;;;;;;;;;;;;16.30;45.17;99186.56;4986735;28;19918;-51
2021/12/08 03:26:43;;;;;;;;;;;;;;;16.32;45.21;99191.75;4951342;28;19922;-50
2021/12/08 03:29:19;;;;;;;;;;;;;;;16.31;45.23;99179.34;4963185;29;19954;-52
2021/12/08 03:31:47;;;;;;;;;;;;;;;16.32;45.26;99186.41;4967618;28;19922;-52
2021/12/08 03:34:12;;;;;;;;;;;;;;;16.31;45.26;99182.03;4951257;29;19918;-52
2021/12/08 03:36:37;;;;;;;;;;;;;;;16.32;45.20;99167.63;4968158;28;19951;-53
2021/12/08 03:39:04;;;;;;;;;;;;;;;16.31;45.20;99177.53;4968421;29;19923;-54
2021/12/08 03:41:33;;;;;;;;;;;;;;;16.32;45.24;99175.66;4967899;28;19919;-51
2021/12/08 03:43:58;;;;;;;;;;;;;;;16.32;45.24;99183.72;4968091;28;19937;-53
2021/12/08 03:46:26;;;;;;;;;;;;;;;16.32;45.20;99197.94;4967301;28;20389;-53
2021/12/08 03:48:52;;;;;;;;;;;;;;;16.32;45.34;99197.94;4974860;28;19981;-50
2021/12/08 03:51:17;;;;;;;;;;;;;;;16.33;45.28;99204.13;4986127;28;19918;-47
2021/12/08 03:53:42;;;;;;;;;;;;;;;16.32;45.34;99200.63;4987405;28;19915;-48
2021/12/08 03:56:07;;;;;;;;;;;;;;;16.32;45.27;99200.63;4987338;28;19952;-50
2021/12/08 03:58:33;;;;;;;;;;;;;;;16.33;45.34;99204.13;4987079;28;20391;-53
2021/12/08 04:00:58;;;;;;;;;;;;;;;16.34;45.19;99208.47;4986292;28;20532;-53
2021/12/08 04:03:26;;;;;;;;;;;;;;;16.33;45.21;99199.59;4978639;28;20419;-53
2021/12/08 04:05:55;;;;;;;;;;;;;;;16.34;45.19;99195.06;4948559;29;19922;-53
2021/12/08 04:08:29;;;;;;;;;;;;;;;16.33;45.30;99202.28;4948559;29;19915;-53
2021/12/08 04:10:54;;;;;;;;;;;;;;;16.33;45.20;99196.91;4950349;28;19923;-54
2021/12/08 04:13:25;;;;;;;;;;;;;;;16.33;45.20;99207.66;4961125;29;19968;-54
2021/12/08 04:15:51;;;;;;;;;;;;;;;16.33;45.33;99213.00;4949277;29;19951;-53
2021/12/08 04:18:16;;;;;;;;;;;;;;;16.34;45.18;99211.16;4971325;28;19921;-52
2021/12/08 04:20:44;;;;;;;;;;;;;;;16.34;45.26;99221.88;4986951;28;19921;-51
2021/12/08 04:23:12;;;;;;;;;;;;;;;16.34;45.24;99225.41;4986876;28;20421;-53
2021/12/08 04:25:38;;;;;;;;;;;;;;;16.33;45.26;99221.06;4986568;28;19914;-53
2021/12/08 04:28:05;;;;;;;;;;;;;;;16.34;45.24;99225.41;4981047;28;20708;-52
2021/12/08 04:30:35;;;;;;;;;;;;;;;16.35;45.23;99231.59;4965654;28;19922;-53
2021/12/08 04:33:00;;;;;;;;;;;;;;;16.35;45.20;99235.09;4967452;28;19950;-50
2021/12/08 04:35:26;;;;;;;;;;;;;;;16.36;45.25;99244.00;4967073;28;19915;-51
2021/12/08 04:37:53;;;;;;;;;;;;;;;16.35;45.10;99243.13;4965717;29;19929;-49
2021/12/08 04:40:31;;;;;;;;;;;;;;;16.36;45.25;99249.34;4967125;28;19985;-49
2021/12/08 04:43:17;;;;;;;;;;;;;;;16.36;45.04;99249.34;4967383;29;19914;-52
2021/12/08 04:51:12;;;;;;;;;;;;;;;16.38;45.22;99249.97;4966776;29;19918;-48
2021/12/08 04:54:03;;;;;;;;;;;;;;;16.38;45.23;99256.16;4966782;29;19953;-48
2021/12/08 05:07:02;;;;;;;;;;;;;;;16.41;45.16;99268.38;4967053;28;19914;-48
2021/12/08 05:09:32;;;;;;;;;;;;;;;16.42;45.23;99254.78;4966447;28;19951;-51
2021/12/08 05:12:01;;;;;;;;;;;;;;;16.41;45.14;99257.66;4965964;28;19918;-49
2021/12/08 05:14:27;;;;;;;;;;;;;;;16.41;45.21;99255.78;4964717;28;19923;-51
2021/12/08 05:16:55;;;;;;;;;;;;;;;16.41;45.26;99253.13;4965673;28;19961;-53
2021/12/08 05:19:21;;;;;;;;;;;;;;;16.42;45.21;99256.63;4966104;28;20034;-49
2021/12/08 05:21:49;;;;;;;;;;;;;;;16.41;45.17;99261.16;4966281;28;20400;-51
2021/12/08 05:24:19;;;;;;;;;;;;;;;16.44;45.41;99257.28;4966096;28;19993;-50
2021/12/08 05:26:44;;;;;;;;;;;;;;;16.44;45.24;99257.28;4970198;28;19918;-49
2021/12/08 05:29:12;;;;;;;;;;;;;;;16.45;45.30;99264.28;4961099;28;20009;-46
2021/12/08 05:31:37;;;;;;;;;;;;;;;16.44;45.45;99265.31;4970089;28;19923;-50
2021/12/08 05:34:03;;;;;;;;;;;;;;;16.45;45.34;99283.06;4968559;28;19926;-49
2021/12/08 05:36:28;;;;;;;;;;;;;;;16.44;45.38;99287.63;4965825;28;19922;-50
2021/12/08 05:38:54;;;;;;;;;;;;;;;16.45;45.36;99307.22;4968478;28;19922;-50
2021/12/08 05:41:39;;;;;;;;;;;;;;;16.45;45.31;99299.16;4952710;28;19925;-48
2021/12/08 05:44:05;;;;;;;;;;;;;;;16.47;45.47;99299.78;4946089;29;19919;-51
2021/12/08 05:46:31;;;;;;;;;;;;;;;16.46;45.56;99298.97;4946848;29;19939;-50
2021/12/08 05:48:56;;;;;;;;;;;;;;;16.46;45.54;99292.78;4953024;28;20483;-51
2021/12/08 05:51:26;;;;;;;;;;;;;;;16.47;45.47;99297.09;4965453;28;19946;-47
2021/12/08 05:53:53;;;;;;;;;;;;;;;16.47;45.73;99300.63;4985408;28;20029;-52
2021/12/08 05:56:18;;;;;;;;;;;;;;;16.48;45.73;99304.13;4983764;28;19946;-53
2021/12/08 05:58:44;;;;;;;;;;;;;;;16.49;45.75;99303.97;4980678;28;19981;-50
2021/12/08 06:01:12;;;;;;;;;;;;;;;16.50;45.77;99310.97;4947021;28;19915;-51
2021/12/08 06:03:38;;;;;;;;;;;;;;;16.52;45.82;99312.63;4947664;29;20236;-49
2021/12/08 06:06:03;;;;;;;;;;;;;;;16.53;45.84;99317.00;4962600;29;19946;-50
2021/12/08 06:08:29;;;;;;;;;;;;;;;16.54;45.83;99318.66;4962589;28;19914;-49
2021/12/08 06:10:55;;;;;;;;;;;;;;;16.54;45.87;99334.75;4953739;28;19923;-49
2021/12/08 06:13:20;;;;;;;;;;;;;;;16.55;45.93;99339.91;4955931;29;20442;-49
2021/12/08 06:15:46;;;;;;;;;;;;;;;16.55;45.93;99339.91;4968164;28;19938;-50
2021/12/08 06:18:12;;;;;;;;;;;;;;;16.55;46.04;99342.59;4969617;28;20434;-49
2021/12/08 06:20:37;;;;;;;;;;;;;;;16.56;46.07;99333.50;4968661;29;19945;-49
2021/12/08 06:23:03;;;;;;;;;;;;;;;16.57;46.04;99340.56;4966459;29;19914;-50
2021/12/08 06:25:28;;;;;;;;;;;;;;;16.56;46.06;99343.41;4969105;28;19914;-48
2021/12/08 06:27:54;;;;;;;;;;;;;;;16.56;46.15;99338.88;4966476;28;19996;-48
2021/12/08 06:30:20;;;;;;;;;;;;;;;16.57;46.24;99337.88;4954581;28;19930;-48
2021/12/08 06:32:46;;;;;;;;;;;;;;;16.58;46.17;99352.94;4955203;28;19934;-44
2021/12/08 06:35:13;;;;;;;;;;;;;;;16.58;46.17;99363.69;4963181;28;19918;-49
2021/12/08 06:37:39;;;;;;;;;;;;;;;16.59;46.26;99364.50;4965988;28;19926;-46
2021/12/08 06:40:13;;;;;;;;;;;;;;;16.59;46.05;99368.03;4965903;28;20392;-49
2021/12/08 06:42:39;;;;;;;;;;;;;;;16.58;46.20;99363.69;4966241;28;19994;-48
2021/12/08 06:45:06;;;;;;;;;;;;;;;16.59;46.27;99368.03;4965709;28;19918;-46
2021/12/08 06:47:32;;;;;;;;;;;;;;;16.59;46.34;99369.88;4966980;28;19973;-48
2021/12/08 06:49:58;;;;;;;;;;;;;;;16.59;46.33;99370.69;4970908;28;19918;-48
2021/12/08 06:52:25;;;;;;;;;;;;;;;16.60;46.45;99366.16;4966109;28;19919;-47
2021/12/08 06:54:56;;;;;;;;;;;;;;;16.62;46.58;99369.50;4966378;28;19968;-42
2021/12/08 06:57:27;;;;;;;;;;;;;;;16.61;46.38;99370.50;4966870;28;19915;-50
2021/12/08 07:00:05;;;;;;;;;;;;;;;16.61;46.37;99384.78;4965960;28;19986;-47
2021/12/08 07:05:23;;;;;;;;;;;;;;;16.61;46.44;99398.19;4970235;28;19919;-47
2021/12/08 07:07:48;;;;;;;;;;;;;;;16.63;46.41;99390.78;4962688;28;20455;-46
2021/12/08 07:10:20;;;;;;;;;;;;;;;16.64;46.62;99397.78;4967334;28;19914;-52
2021/12/08 07:12:47;;;;;;;;;;;;;;;16.67;46.48;99405.47;4968321;28;19923;-51
2021/12/08 07:15:15;;;;;;;;;;;;;;;16.72;46.49;99404.91;4964627;29;19925;-52
2021/12/08 07:17:41;;;;;;;;;;;;;;;16.76;46.28;99403.53;4967837;28;19921;-51
2021/12/08 07:20:17;;;;;;;;;;;;;;;16.80;46.15;99409.34;4958475;28;19922;-53
2021/12/08 07:22:44;;;;;;;;;;;;;;;16.84;45.97;99405.25;4953672;28;19915;-48
2021/12/08 07:25:12;;;;;;;;;;;;;;;16.87;46.13;99410.25;4956826;29;19922;-52
2021/12/08 07:27:38;;;;;;;;;;;;;;;16.89;45.98;99406.34;4959105;29;19915;-52
2021/12/08 07:30:23;;;;;;;;;;;;;;;16.91;45.97;99415.03;4955814;29;19918;-49
2021/12/08 07:32:48;;;;;;;;;;;;;;;16.92;46.10;99421.25;4965223;29;19918;-51
2021/12/08 07:35:15;;;;;;;;;;;;;;;16.93;45.83;99422.91;4967599;28;19921;-51
2021/12/08 07:37:40;;;;;;;;;;;;;;;16.94;45.93;99421.88;4967671;29;19933;-46
2021/12/08 07:40:14;;;;;;;;;;;;;;;16.96;45.96;99427.91;4963290;28;19919;-51
2021/12/08 07:42:44;;;;;;;;;;;;;;;16.96;45.72;99434.09;4952284;29;19914;-52
2021/12/08 07:45:12;;;;;;;;;;;;;;;16.97;45.74;99446.47;4963575;29;19915;-48
2021/12/08 07:47:38;;;;;;;;;;;;;;;16.97;45.82;99441.13;4948452;29;19918;-50
2021/12/08 07:50:10;;;;;;;;;;;;;;;16.98;45.83;99439.25;4956515;28;19994;-52
2021/12/08 07:52:36;;;;;;;;;;;;;;;17.00;45.80;99439.91;4951113;29;20394;-54
2021/12/08 07:55:04;;;;;;;;;;;;;;;17.00;45.88;99437.22;4948642;29;19921;-51
2021/12/08 07:57:30;;;;;;;;;;;;;;;17.01;45.85;99444.25;4948478;29;19922;-53
2021/12/08 07:59:59;;;;;;;;;;;;;;;17.01;45.68;99432.69;4947503;29;19915;-52
2021/12/08 08:02:27;;;;;;;;;;;;;;;17.03;45.74;99438.69;4948222;29;19919;-52
2021/12/08 08:04:52;;;;;;;;;;;;;;;17.04;45.62;99443.06;4948591;29;19943;-51
2021/12/08 08:07:19;;;;;;;;;;;;;;;17.04;45.51;99441.19;4948100;29;19915;-50
2021/12/08 08:09:45;;;;;;;;;;;;;;;17.04;45.58;99451.94;4959952;28;19925;-52
2021/12/08 08:12:12;;;;;;;;;;;;;;;17.05;45.50;99461.63;4967221;28;19918;-54
2021/12/08 08:14:41;;;;;;;;;;;;;;;17.06;45.55;99455.25;4967924;28;19933;-49
2021/12/08 08:17:08;;;;;;;;;;;;;;;16.95;45.51;99451.22;4967441;28;19934;-53
2021/12/08 08:19:36;;;;;;;;;;;;;;;17.07;45.53;99464.94;4967329;28;19919;-55
2021/12/08 08:22:05;;;;;;;;;;;;;;;17.07;45.45;99446.16;4966905;28;19954;-52
2021/12/08 08:24:30;;;;;;;;;;;;;;;17.07;45.53;99446.16;4966949;28;20314;-52
2021/12/08 08:26:57;;;;;;;;;;;;;;;17.06;45.36;99454.41;4967044;28;19978;-53
2021/12/08 08:29:23;;;;;;;;;;;;;;;17.06;45.52;99449.88;4966701;29;19914;-53
2021/12/08 08:31:56;;;;;;;;;;;;;;;17.07;45.32;99450.69;4966500;29;19922;-52
2021/12/08 08:34:21;;;;;;;;;;;;;;;17.06;45.59;99459.78;4966283;28;19914;-50
2021/12/08 08:36:47;;;;;;;;;;;;;;;17.05;45.25;99456.28;4966855;28;19929;-54
2021/12/08 08:39:17;;;;;;;;;;;;;;;17.05;45.28;99453.59;4967240;29;19922;-53
2021/12/08 08:41:47;;;;;;;;;;;;;;;17.05;45.38;99467.00;4966736;29;20608;-50
2021/12/08 08:44:17;;;;;;;;;;;;;;;17.05;45.20;99467.00;4966867;28;19938;-52
2021/12/08 08:46:48;;;;;;;;;;;;;;;17.06;45.18;99465.97;4981009;28;19941;-53
2021/12/08 08:49:15;;;;;;;;;;;;;;;17.06;45.17;99457.94;4967033;28;19915;-53
2021/12/08 08:51:42;;;;;;;;;;;;;;;17.08;45.09;99471.19;4966735;29;19918;-53
2021/12/08 08:54:13;;;;;;;;;;;;;;;17.08;45.07;99463.13;4967144;28;19922;-52
2021/12/08 08:56:45;;;;;;;;;;;;;;;17.09;45.02;99480.91;4966562;28;19919;-54
2021/12/08 08:59:12;;;;;;;;;;;;;;;17.09;44.88;99476.34;4966427;29;19926;-53
2021/12/08 09:01:39;;;;;;;;;;;;;;;17.09;45.06;99468.28;4965635;28;19914;-52
2021/12/08 09:04:08;;;;;;;;;;;;;;;17.09;44.94;99484.41;4966787;28;19949;-51
2021/12/08 09:06:35;;;;;;;;;;;;;;;17.11;44.88;99487.72;4966364;28;19914;-51
2021/12/08 09:09:04;;;;;;;;;;;;;;;17.13;44.95;99492.91;4966456;28;19938;-48
2021/12/08 09:11:32;;;;;;;;;;;;;;;17.15;44.78;99486.31;4965918;29;19925;-53
2021/12/08 09:14:03;;;;;;;;;;;;;;;17.21;44.86;99479.38;4966484;29;19919;-53
2021/12/08 09:16:33;;;;;;;;;;;;;;;17.26;44.45;99493.03;4978246;28;19921;-54
2021/12/08 09:19:04;;;;;;;;;;;;;;;17.30;44.46;99497.00;4985749;28;19918;-51
2021/12/08 09:21:42;;;;;;;;;;;;;;;17.34;44.36;99492.91;4985446;28;19914;-51
2021/12/08 09:24:21;;;;;;;;;;;;;;;17.39;44.17;99487.78;4985859;28;19914;-53
2021/12/08 09:26:48;;;;;;;;;;;;;;;17.42;44.23;99495.47;4985614;28;20323;-50
2021/12/08 09:29:18;;;;;;;;;;;;;;;17.44;44.00;99493.41;4970206;28;19985;-48
2021/12/08 09:31:45;;;;;;;;;;;;;;;17.47;43.84;99492.19;4965235;28;20387;-54
2021/12/08 09:34:19;;;;;;;;;;;;;;;17.48;44.05;99497.38;4966174;28;19975;-55
2021/12/08 09:36:46;;;;;;;;;;;;;;;17.49;44.01;99500.88;4965957;29;20057;-53
2021/12/08 09:39:13;;;;;;;;;;;;;;;17.49;43.78;99504.41;4966052;28;20375;-52
2021/12/08 09:41:40;;;;;;;;;;;;;;;17.49;43.72;99507.09;4965730;28;19914;-52
2021/12/08 09:44:08;;;;;;;;;;;;;;;17.51;43.73;99504.22;4965925;28;19922;-52
2021/12/08 09:46:34;;;;;;;;;;;;;;;17.50;43.87;99513.31;4982640;28;19918;-54
2021/12/08 09:49:01;;;;;;;;;;;;;;;17.51;43.72;99514.97;4985276;28;19925;-51
2021/12/08 09:51:27;;;;;;;;;;;;;;;17.52;43.63;99521.19;4983799;28;19925;-50
2021/12/08 09:53:52;;;;;;;;;;;;;;;17.52;43.55;99518.50;4985188;28;19914;-50
2021/12/08 09:56:18;;;;;;;;;;;;;;;17.52;43.52;99522.00;4985036;28;19914;-53
2021/12/08 09:58:44;;;;;;;;;;;;;;;17.53;43.54;99514.78;4984717;28;19914;-50
2021/12/08 10:01:13;;;;;;;;;;;;;;;17.53;43.44;99522.84;4984319;28;19998;-53
2021/12/08 10:03:38;;;;;;;;;;;;;;;17.55;43.39;99526.19;4985291;28;19914;-52
2021/12/08 10:06:03;;;;;;;;;;;;;;;17.55;43.55;99543.13;4985065;28;20016;-53
2021/12/08 10:08:28;;;;;;;;;;;;;;;17.56;43.36;99525.97;4978274;28;20009;-52
2021/12/08 10:10:54;;;;;;;;;;;;;;;17.57;43.48;99529.50;4965192;28;20403;-51
2021/12/08 10:13:19;;;;;;;;;;;;;;;17.58;43.35;99521.22;4965783;28;19964;-54
2021/12/08 10:15:44;;;;;;;;;;;;;;;17.58;43.30;99517.69;4975193;28;19922;-51
2021/12/08 10:18:10;;;;;;;;;;;;;;;17.59;43.30;99519.38;4983602;28;19925;-52
2021/12/08 10:20:38;;;;;;;;;;;;;;;17.60;43.29;99508.44;4984878;28;19962;-52
2021/12/08 10:23:27;;;;;;;;;;;;;;;17.60;43.42;99508.44;4985110;28;19933;-50
2021/12/08 10:25:52;;;;;;;;;;;;;;;17.61;43.20;99510.09;4984955;28;19977;-53
2021/12/08 10:28:21;;;;;;;;;;;;;;;17.61;43.30;99490.44;4977043;28;20371;-53
2021/12/08 10:30:52;;;;;;;;;;;;;;;17.60;43.32;99478.88;4964563;28;19915;-53
2021/12/08 10:36:32;;;;;;;;;;;;;;;17.61;43.33;99458.19;4967392;28;19923;-49
2021/12/08 10:38:58;;;;;;;;;;;;;;;17.62;43.32;99455.31;4965998;28;19936;-46
2021/12/08 10:41:23;;;;;;;;;;;;;;;17.62;43.35;99444.56;4965253;29;19918;-52
2021/12/08 10:43:58;;;;;;;;;;;;;;;17.62;43.11;99439.19;4965641;29;19938;-51
2021/12/08 10:46:31;;;;;;;;;;;;;;;17.62;43.08;99444.56;4964800;28;19953;-51
2021/12/08 10:49:09;;;;;;;;;;;;;;;17.63;43.14;99448.09;4979152;28;19914;-52
2021/12/08 10:54:27;;;;;;;;;;;;;;;17.63;43.09;99448.94;4983665;28;19921;-53
2021/12/08 10:56:56;;;;;;;;;;;;;;;17.64;43.11;99452.44;4986123;28;19914;-51
2021/12/08 10:59:22;;;;;;;;;;;;;;;17.65;43.11;99459.47;4988108;28;19914;-50
2021/12/08 11:01:47;;;;;;;;;;;;;;;17.65;43.10;99462.97;4987515;28;19937;-53
2021/12/08 11:04:16;;;;;;;;;;;;;;;17.66;43.11;99479.94;4988388;28;19914;-51
2021/12/08 11:06:41;;;;;;;;;;;;;;;17.66;43.24;99483.47;4988334;28;19914;-53
2021/12/08 11:09:13;;;;;;;;;;;;;;;17.68;43.11;99494.03;4977917;28;19937;-53
2021/12/08 11:11:43;;;;;;;;;;;;;;;17.70;43.02;99508.09;4987764;28;20459;-50
2021/12/08 11:14:09;;;;;;;;;;;;;;;17.74;42.96;99506.72;4988358;28;19947;-51
2021/12/08 11:16:38;;;;;;;;;;;;;;;17.79;42.91;99514.19;4987051;28;19918;-54
2021/12/08 11:19:08;;;;;;;;;;;;;;;17.82;42.70;99506.56;4986698;28;19914;-53
2021/12/08 11:21:39;;;;;;;;;;;;;;;17.86;42.75;99518.59;4987694;28;19914;-53
2021/12/08 11:24:10;;;;;;;;;;;;;;;17.90;42.87;99529.78;4991534;28;19918;-51
2021/12/08 11:26:37;;;;;;;;;;;;;;;17.93;42.63;99540.16;4975060;28;19966;-51
2021/12/08 11:29:05;;;;;;;;;;;;;;;17.95;42.69;99546.16;4975656;28;19921;-50
2021/12/08 11:31:50;;;;;;;;;;;;;;;17.98;42.62;99545.78;4986667;28;19928;-53
2021/12/08 11:34:20;;;;;;;;;;;;;;;18.00;42.88;99543.72;4968651;28;19926;-54
2021/12/08 11:36:46;;;;;;;;;;;;;;;18.03;42.80;99540.66;4967913;28;19926;-54
2021/12/08 11:39:15;;;;;;;;;;;;;;;18.06;42.78;99537.56;4968685;28;19922;-49
2021/12/08 11:41:45;;;;;;;;;;;;;;;18.08;42.88;99542.75;4987374;28;20371;-49
2021/12/08 11:44:14;;;;;;;;;;;;;;;18.08;42.95;99545.44;4986887;28;21372;-52
2021/12/08 11:46:41;;;;;;;;;;;;;;;18.12;42.85;99554.78;4986513;28;19921;-54
2021/12/08 11:49:08;;;;;;;;;;;;;;;18.14;42.91;99553.56;4987418;28;19966;-54
2021/12/08 11:51:49;;;;;;;;;;;;;;;18.16;42.99;99564.13;4987288;28;19918;-50
2021/12/08 11:54:24;;;;;;;;;;;;;;;18.17;42.86;99576.53;4979026;28;19918;-54
2021/12/08 11:56:49;;;;;;;;;;;;;;;18.14;43.06;99579.63;4967715;28;19914;-50
2021/12/08 11:59:14;;;;;;;;;;;;;;;18.13;43.08;99578.78;4967472;28;19923;-53
2021/12/08 12:01:40;;;;;;;;;;;;;;;18.12;43.35;99570.91;4966507;28;20017;-53
2021/12/08 12:04:06;;;;;;;;;;;;;;;18.10;43.41;99570.28;4967740;28;19925;-54
2021/12/08 12:06:32;;;;;;;;;;;;;;;18.09;43.36;99577.50;4967555;28;19914;-50
2021/12/08 12:08:58;;;;;;;;;;;;;;;18.09;43.49;99590.94;4969080;28;19926;-51
2021/12/08 12:11:25;;;;;;;;;;;;;;;18.09;43.73;99584.75;4969914;28;20074;-51
2021/12/08 12:13:50;;;;;;;;;;;;;;;18.09;43.61;99579.38;4970026;28;19918;-53
2021/12/08 12:16:15;;;;;;;;;;;;;;;18.09;43.69;99572.13;4966621;28;19918;-51
2021/12/08 12:18:40;;;;;;;;;;;;;;;18.11;43.64;99564.72;4970432;28;20345;-49
2021/12/08 12:21:18;;;;;;;;;;;;;;;18.15;43.72;99567.84;4973908;28;19915;-52
2021/12/08 12:24:05;;;;;;;;;;;;;;;18.19;43.49;99580.69;4970562;28;19914;-52
2021/12/08 12:26:34;;;;;;;;;;;;;;;18.22;43.42;99584.84;4972426;28;20456;-53
2021/12/08 12:29:14;;;;;;;;;;;;;;;18.23;43.47;99587.34;4954115;28;19914;-52
2021/12/08 12:31:40;;;;;;;;;;;;;;;18.23;43.51;99602.66;4945783;29;19919;-52
2021/12/08 12:34:19;;;;;;;;;;;;;;;18.10;43.66;99589.94;4948236;29;19926;-51
2021/12/08 12:36:45;;;;;;;;;;;;;;;18.18;43.76;99610.47;4947850;29;19929;-52
2021/12/08 12:39:10;;;;;;;;;;;;;;;18.15;43.67;99608.19;4950727;28;19922;-53
2021/12/08 12:41:35;;;;;;;;;;;;;;;18.13;43.84;99608.38;4966648;29;20013;-52
2021/12/08 12:44:14;;;;;;;;;;;;;;;18.12;43.92;99614.78;4967186;29;20001;-51
2021/12/08 12:47:21;;;;;;;;;;;;;;;18.02;43.88;99598.16;4965933;28;19915;-53
2021/12/08 12:49:48;;;;;;;;;;;;;;;18.07;43.92;99603.78;4944567;29;19991;-53
2021/12/08 12:52:15;;;;;;;;;;;;;;;18.05;43.96;99611.19;4944424;29;19923;-52
2021/12/08 12:54:40;;;;;;;;;;;;;;;18.05;43.88;99615.75;4944343;29;20050;-50
2021/12/08 12:57:07;;;;;;;;;;;;;;;18.03;43.81;99607.88;4944242;29;19915;-53
2021/12/08 12:59:43;;;;;;;;;;;;;;;18.03;43.77;99617.81;4944342;29;19919;-50
2021/12/08 13:02:12;;;;;;;;;;;;;;;18.03;44.04;99620.50;4944551;29;19946;-54
2021/12/08 13:04:54;;;;;;;;;;;;;;;18.02;44.03;99627.75;4944775;29;19915;-51
2021/12/08 13:07:19;;;;;;;;;;;;;;;18.03;43.89;99615.13;4944903;29;20014;-53
2021/12/08 13:09:50;;;;;;;;;;;;;;;18.03;43.85;99623.19;4944050;29;19919;-53
2021/12/08 13:12:24;;;;;;;;;;;;;;;18.05;43.88;99615.75;4944536;29;20021;-53
2021/12/08 13:15:05;;;;;;;;;;;;;;;18.04;43.76;99617.59;4943840;29;19914;-54
2021/12/08 13:17:30;;;;;;;;;;;;;;;18.08;43.89;99618.06;4944349;29;20459;-51
2021/12/08 13:19:57;;;;;;;;;;;;;;;18.10;43.93;99624.09;4944367;29;19915;-50
2021/12/08 13:22:42;;;;;;;;;;;;;;;18.13;43.77;99624.50;4944356;29;19915;-52
2021/12/08 13:25:26;;;;;;;;;;;;;;;18.16;43.55;99626.00;4961592;28;19918;-52
2021/12/08 13:27:55;;;;;;;;;;;;;;;18.19;43.67;99623.75;4966318;28;19949;-54
2021/12/08 13:30:20;;;;;;;;;;;;;;;18.23;43.65;99626.88;4967125;28;19953;-53
2021/12/08 13:32:46;;;;;;;;;;;;;;;18.24;43.64;99623.16;4966320;28;19927;-50
2021/12/08 13:35:12;;;;;;;;;;;;;;;18.26;43.60;99631.03;4967785;28;19976;-49
2021/12/08 13:37:39;;;;;;;;;;;;;;;18.32;43.39;99638.31;4966009;28;19922;-49